createdAt,value
2022-09-28T00:01:19.218Z,98523.80
2022-09-28T00:06:29.084Z,98527.00
2022-09-28T00:11:33.624Z,98521.40
2022-09-28T00:16:43.836Z,98514.20
2022-09-28T00:21:48.242Z,98506.60
2022-09-28T00:26:58.170Z,98503.20
2022-09-28T00:32:05.077Z,98492.40
2022-09-28T00:37:09.682Z,98495.80
2022-09-28T00:42:23.705Z,98486.60
2022-09-28T00:47:31.623Z,98488.00
2022-09-28T00:52:50.287Z,98480.20
2022-09-28T00:58:00.162Z,98476.00
2022-09-28T01:03:04.596Z,98479.00
2022-09-28T01:08:09.341Z,98472.60
2022-09-28T01:13:13.984Z,98472.80
2022-09-28T01:18:41.591Z,98469.00
2022-09-28T01:24:42.422Z,98453.00
2022-09-28T01:30:12.775Z,98448.40
2022-09-28T01:35:44.413Z,98445.00
2022-09-28T01:40:49.549Z,98442.20
2022-09-28T01:46:15.236Z,98439.60
2022-09-28T01:51:35.828Z,98446.00
2022-09-28T01:56:49.096Z,98438.60
2022-09-28T02:01:56.648Z,98431.40
2022-09-28T02:07:29.420Z,98430.40
2022-09-28T02:12:42.902Z,98430.20
2022-09-28T02:17:46.895Z,98438.40
2022-09-28T02:22:56.120Z,98437.80
2022-09-28T02:28:04.508Z,98441.20
2022-09-28T02:33:29.591Z,98440.40
2022-09-28T02:38:33.613Z,98444.00
2022-09-28T02:44:53.523Z,98443.00
2022-09-28T02:50:34.826Z,98444.00
2022-09-28T02:55:50.225Z,98444.20
2022-09-28T03:01:12.717Z,98441.80
2022-09-28T03:06:45.483Z,98442.00
2022-09-28T03:12:05.283Z,98442.60
2022-09-28T03:17:08.602Z,98441.40
2022-09-28T03:22:11.917Z,98441.60
2022-09-28T03:27:15.318Z,98436.60
2022-09-28T03:32:18.636Z,98439.00
2022-09-28T03:37:22.352Z,98437.80
2022-09-28T03:42:25.823Z,98439.20
2022-09-28T03:47:29.390Z,98433.60
2022-09-28T03:52:33.210Z,98440.20
2022-09-28T03:57:36.826Z,98441.20
2022-09-28T04:02:40.256Z,98431.60
2022-09-28T04:07:43.655Z,98421.60
2022-09-28T04:12:47.074Z,98421.20
2022-09-28T04:17:51.116Z,98425.60
2022-09-28T04:22:54.411Z,98424.20
2022-09-28T04:28:16.157Z,98423.00
2022-09-28T04:33:19.580Z,98426.80
2022-09-28T04:38:41.510Z,98419.40
2022-09-28T04:43:49.337Z,98416.20
2022-09-28T04:48:52.746Z,98409.20
2022-09-28T04:53:56.362Z,98409.00
2022-09-28T04:58:59.693Z,98405.40
2022-09-28T05:04:03.621Z,98405.80
2022-09-28T05:09:07.842Z,98399.40
2022-09-28T05:14:12.473Z,98393.40
2022-09-28T05:19:15.920Z,98390.00
2022-09-28T05:24:19.420Z,98398.00
2022-09-28T05:29:22.822Z,98390.60
2022-09-28T05:34:26.135Z,98386.40
2022-09-28T05:39:29.471Z,98382.00
2022-09-28T05:44:32.853Z,98383.00
2022-09-28T05:49:36.202Z,98396.00
2022-09-28T05:54:39.665Z,98393.60
2022-09-28T05:59:42.994Z,98388.40
2022-09-28T06:04:48.560Z,98390.40
2022-09-28T06:09:51.868Z,98389.20
2022-09-28T06:14:55.591Z,98391.60
2022-09-28T06:19:59.494Z,98389.80
2022-09-28T06:25:02.934Z,98385.60
2022-09-28T06:30:07.496Z,98381.20
2022-09-28T06:35:10.883Z,98380.40
2022-09-28T06:40:14.848Z,98382.80
2022-09-28T06:45:20.373Z,98382.20
2022-09-28T06:50:37.613Z,98384.80
2022-09-28T06:55:50.654Z,98386.20
2022-09-28T07:01:00.426Z,98378.20
2022-09-28T07:06:05.158Z,98381.80
2022-09-28T07:11:09.038Z,98377.00
2022-09-28T07:16:13.191Z,98375.60
2022-09-28T07:21:27.272Z,98376.40
2022-09-28T07:26:33.561Z,98381.00
2022-09-28T07:31:36.871Z,98378.00
2022-09-28T07:36:40.118Z,98379.40
2022-09-28T07:41:44.478Z,98386.60
2022-09-28T07:46:47.740Z,98393.80
2022-09-28T07:51:51.039Z,98394.20
2022-09-28T07:56:54.556Z,98388.20
2022-09-28T08:01:59.226Z,98393.60
2022-09-28T08:07:03.432Z,98404.00
2022-09-28T08:12:07.689Z,98403.00
2022-09-28T08:17:11.158Z,98417.80
2022-09-28T08:22:15.746Z,98407.80
2022-09-28T08:27:19.060Z,98407.80
2022-09-28T08:32:22.447Z,98402.20
2022-09-28T08:37:25.857Z,98407.60
2022-09-28T08:42:42.992Z,98397.00
2022-09-28T08:48:15.468Z,98401.40
2022-09-28T08:53:35.535Z,98404.60
2022-09-28T08:58:44.667Z,98412.40
2022-09-28T09:03:49.875Z,98416.60
2022-09-28T09:09:20.790Z,98412.80
2022-09-28T09:14:44.619Z,98415.20
2022-09-28T09:20:01.995Z,98416.00
2022-09-28T09:25:21.989Z,98433.00
2022-09-28T09:30:29.944Z,98448.40
2022-09-28T09:36:16.229Z,98455.40
2022-09-28T09:42:02.145Z,98458.40
2022-09-28T09:47:26.341Z,98452.80
2022-09-28T09:52:57.521Z,98449.80
2022-09-28T09:58:13.317Z,98454.60
2022-09-28T10:03:31.646Z,98467.80
2022-09-28T10:08:43.590Z,98472.20
2022-09-28T10:13:50.075Z,98479.00
2022-09-28T10:18:53.498Z,98475.20
2022-09-28T10:24:04.384Z,98475.40
2022-09-28T10:29:23.324Z,98472.60
2022-09-28T10:34:31.155Z,98479.40
2022-09-28T10:39:49.754Z,98489.60
2022-09-28T10:45:02.684Z,98490.20
2022-09-28T10:50:28.825Z,98496.00
2022-09-28T10:55:33.791Z,98489.00
2022-09-28T11:00:43.339Z,98477.60
2022-09-28T11:06:07.587Z,98488.80
2022-09-28T11:11:15.043Z,98487.60
2022-09-28T11:16:26.435Z,98505.60
2022-09-28T11:21:42.145Z,98509.80
2022-09-28T11:26:49.968Z,98512.60
2022-09-28T11:31:59.589Z,98514.20
2022-09-28T11:37:32.019Z,98518.00
2022-09-28T11:42:56.540Z,98512.80
2022-09-28T11:48:06.359Z,98504.00
2022-09-28T11:53:25.169Z,98505.40
2022-09-28T11:58:53.565Z,98509.00
2022-09-28T12:04:06.976Z,98502.00
2022-09-28T12:09:36.116Z,98512.00
2022-09-28T12:14:41.401Z,98515.60
2022-09-28T12:20:37.026Z,98515.60
2022-09-28T12:26:15.369Z,98524.00
2022-09-28T12:31:30.861Z,98518.40
2022-09-28T12:36:56.906Z,98523.40
2022-09-28T12:42:39.401Z,98526.40
2022-09-28T12:48:09.188Z,98526.60
2022-09-28T12:53:21.178Z,98525.60
2022-09-28T12:58:42.408Z,98527.60
2022-09-28T13:04:28.013Z,98528.00
2022-09-28T13:10:26.143Z,98526.80
2022-09-28T13:16:09.205Z,98535.20
2022-09-28T13:21:31.415Z,98534.20
2022-09-28T13:26:45.174Z,98540.60
2022-09-28T13:31:57.900Z,98536.00
2022-09-28T13:37:22.104Z,98541.40
2022-09-28T13:42:52.237Z,98543.80
2022-09-28T13:48:05.700Z,98550.00
2022-09-28T13:53:59.277Z,98541.20
2022-09-28T13:59:28.237Z,98548.80
2022-09-28T14:05:03.876Z,98546.80
2022-09-28T14:10:57.246Z,98550.80
2022-09-28T14:16:18.749Z,98547.60
2022-09-28T14:21:43.599Z,98550.40
2022-09-28T14:27:17.627Z,98558.40
2022-09-28T14:32:25.005Z,98562.00
2022-09-28T14:37:52.624Z,98559.40
2022-09-28T14:43:25.213Z,98570.40
2022-09-28T14:48:55.470Z,98574.00
2022-09-28T14:54:26.318Z,98573.80
2022-09-28T14:59:36.389Z,98568.40
2022-09-28T15:04:52.800Z,98576.80
2022-09-28T15:09:58.686Z,98577.00
2022-09-28T15:15:08.746Z,98579.00
2022-09-28T15:20:35.709Z,98585.20
2022-09-28T15:25:39.121Z,98590.80
2022-09-28T15:30:42.690Z,98592.20
2022-09-28T15:35:57.848Z,98582.60
2022-09-28T15:41:07.493Z,98578.60
2022-09-28T15:46:19.160Z,98583.60
2022-09-28T15:51:25.614Z,98575.60
2022-09-28T15:56:30.672Z,98582.40
2022-09-28T16:01:44.659Z,98581.00
2022-09-28T16:07:12.692Z,98591.80
2022-09-28T16:12:16.068Z,98581.80
2022-09-28T16:17:33.037Z,98585.20
2022-09-28T16:22:38.465Z,98585.60
2022-09-28T16:27:44.880Z,98586.00
2022-09-28T16:33:02.321Z,98585.60
2022-09-28T16:38:18.331Z,98589.80
2022-09-28T16:43:29.491Z,98584.20
2022-09-28T16:48:36.843Z,98596.80
2022-09-28T16:53:58.893Z,98591.20
2022-09-28T16:59:03.606Z,98588.00
2022-09-28T17:04:07.861Z,98586.80
2022-09-28T17:09:14.454Z,98590.60
2022-09-28T17:14:18.792Z,98581.80
2022-09-28T17:19:25.871Z,98588.40
2022-09-28T17:24:29.181Z,98583.40
2022-09-28T17:29:32.921Z,98585.00
2022-09-28T17:34:36.702Z,98581.00
2022-09-28T17:39:40.097Z,98585.00
2022-09-28T17:44:43.476Z,98585.60
2022-09-28T17:49:46.855Z,98570.80
2022-09-28T17:54:50.189Z,98562.40
2022-09-28T17:59:53.606Z,98568.60
2022-09-28T18:04:57.243Z,98571.80
2022-09-28T18:10:01.454Z,98574.60
2022-09-28T18:15:05.919Z,98580.00
2022-09-28T18:20:12.281Z,98581.80
2022-09-28T18:25:15.692Z,98582.20
2022-09-28T18:30:19.105Z,98577.20
2022-09-28T18:35:23.436Z,98581.20
2022-09-28T18:40:27.214Z,98573.40
2022-09-28T18:45:30.685Z,98580.00
2022-09-28T18:50:34.712Z,98578.00
2022-09-28T18:55:43.358Z,98576.40
2022-09-28T19:00:46.962Z,98572.00
2022-09-28T19:05:50.377Z,98571.80
2022-09-28T19:10:53.796Z,98575.20
2022-09-28T19:15:57.118Z,98573.80
2022-09-28T19:21:07.234Z,98568.60
2022-09-28T19:26:16.628Z,98560.80
2022-09-28T19:31:22.709Z,98566.40
2022-09-28T19:36:28.756Z,98569.80
2022-09-28T19:41:43.752Z,98584.60
2022-09-28T19:46:47.900Z,98589.00
2022-09-28T19:52:12.171Z,98592.60
2022-09-28T19:57:19.758Z,98590.60
2022-09-28T20:02:23.169Z,98605.40
2022-09-28T20:07:26.739Z,98599.20
2022-09-28T20:12:30.154Z,98602.80
2022-09-28T20:17:33.560Z,98614.20
2022-09-28T20:22:37.300Z,98618.40
2022-09-28T20:27:40.609Z,98618.80
2022-09-28T20:32:48.726Z,98626.60
2022-09-28T20:37:53.273Z,98627.00
2022-09-28T20:42:56.577Z,98630.80
2022-09-28T20:48:04.857Z,98629.40
2022-09-28T20:53:08.235Z,98629.00
2022-09-28T20:58:11.869Z,98633.00
2022-09-28T21:03:15.146Z,98625.80
2022-09-28T21:08:22.535Z,98619.80
2022-09-28T21:13:27.095Z,98612.80
2022-09-28T21:18:31.019Z,98618.20
2022-09-28T21:23:35.584Z,98623.00
2022-09-28T21:28:40.681Z,98628.40
2022-09-28T21:33:44.130Z,98629.60
2022-09-28T21:38:47.849Z,98628.20
2022-09-28T21:43:51.736Z,98626.80
2022-09-28T21:48:55.396Z,98619.60
2022-09-28T21:53:58.809Z,98610.40
2022-09-28T21:59:02.579Z,98608.20
2022-09-28T22:04:06.151Z,98606.00
2022-09-28T22:09:09.869Z,98609.20
2022-09-28T22:14:13.284Z,98605.00
2022-09-28T22:19:16.929Z,98610.00
2022-09-28T22:24:20.403Z,98609.00
2022-09-28T22:29:24.496Z,98609.40
2022-09-28T22:34:32.266Z,98616.60
2022-09-28T22:39:37.869Z,98608.40
2022-09-28T22:44:41.345Z,98617.00
2022-09-28T22:49:44.961Z,98615.20
2022-09-28T22:54:51.451Z,98610.80
2022-09-28T22:59:54.988Z,98614.80
2022-09-28T23:04:58.269Z,98612.00
2022-09-28T23:10:01.707Z,98616.20
2022-09-28T23:15:06.904Z,98607.60
2022-09-28T23:20:10.361Z,98602.00
2022-09-28T23:25:14.572Z,98607.60
2022-09-28T23:30:21.934Z,98609.00
2022-09-28T23:35:25.248Z,98603.20
2022-09-28T23:40:28.683Z,98609.20
2022-09-28T23:45:32.142Z,98613.00
2022-09-28T23:50:35.555Z,98607.40
2022-09-28T23:55:38.972Z,98611.60
